Time;durP1;ratioP1;P1;durP2;ratioP2;P2;SDS_P1;SDS_P2;PMS_P1;PMS_P2;Temp;Humidity;BMP_temperature;BMP_pressure;BME280_temperature;BME280_humidity;BME280_pressure;Samples;Min_cycle;Max_cycle;Signal;HPM_P1;HPM_P2
2022/03/01 00:00:18;;;;;;;2.53;2.30;;;15.00;59.00;;;;;;5093914;28;20235;-18
2022/03/01 00:02:44;;;;;;;3.07;2.00;;;15.00;59.00;;;;;;5094969;28;20179;-18
2022/03/01 00:05:10;;;;;;;2.67;2.13;;;15.00;59.00;;;;;;5094754;28;20413;-19
2022/03/01 00:07:36;;;;;;;2.20;2.00;;;14.90;59.00;;;;;;5094158;28;20230;-21
2022/03/01 00:10:03;;;;;;;2.20;1.97;;;15.00;59.00;;;;;;5093647;28;20218;-19
2022/03/01 00:12:30;;;;;;;2.63;2.10;;;14.90;59.00;;;;;;5093844;28;20176;-20
2022/03/01 00:14:56;;;;;;;2.50;1.90;;;14.90;59.00;;;;;;5094559;28;20181;-20
2022/03/01 00:17:21;;;;;;;2.20;2.00;;;14.90;59.00;;;;;;5093590;28;20175;-20
2022/03/01 00:19:47;;;;;;;2.57;1.97;;;14.90;59.10;;;;;;5093676;28;20179;-19
2022/03/01 00:22:13;;;;;;;3.20;2.33;;;14.90;59.10;;;;;;5093637;28;20267;-19
2022/03/01 00:24:39;;;;;;;2.13;1.93;;;14.90;59.10;;;;;;5094707;28;20219;-22
2022/03/01 00:27:04;;;;;;;2.40;2.17;;;14.90;59.10;;;;;;5093263;28;20179;-20
2022/03/01 00:29:30;;;;;;;2.70;2.20;;;14.90;59.10;;;;;;5093117;28;20316;-21
2022/03/01 00:31:56;;;;;;;2.07;1.80;;;14.90;59.10;;;;;;5094807;28;20336;-18
2022/03/01 00:34:22;;;;;;;3.07;2.30;;;14.90;59.10;;;;;;5093907;28;20574;-21
2022/03/01 00:36:47;;;;;;;3.37;2.17;;;14.90;59.10;;;;;;5092801;28;20182;-25
2022/03/01 00:39:13;;;;;;;2.27;1.87;;;14.90;59.10;;;;;;5092955;28;20175;-19
2022/03/01 00:41:39;;;;;;;2.47;2.20;;;14.80;59.10;;;;;;5093645;28;20183;-21
2022/03/01 00:44:05;;;;;;;2.30;2.10;;;14.80;59.20;;;;;;5094217;28;20166;-20
2022/03/01 00:46:31;;;;;;;2.00;1.83;;;14.80;59.10;;;;;;5093352;28;20186;-20
2022/03/01 00:48:58;;;;;;;2.30;2.10;;;14.80;59.10;;;;;;5093634;28;20582;-17
2022/03/01 00:51:26;;;;;;;2.37;1.97;;;14.80;59.10;;;;;;5093829;28;20174;-20
2022/03/01 00:53:52;;;;;;;2.40;2.20;;;14.80;59.20;;;;;;5093720;28;20464;-20
2022/03/01 00:56:18;;;;;;;3.07;2.10;;;14.80;59.10;;;;;;5093559;28;20456;-19
2022/03/01 00:58:44;;;;;;;2.40;1.97;;;14.80;59.10;;;;;;5096747;28;20216;-20
2022/03/01 01:01:10;;;;;;;2.07;1.87;;;14.80;59.20;;;;;;5097480;28;20217;-21
2022/03/01 01:03:35;;;;;;;2.43;2.10;;;14.80;59.20;;;;;;5097021;28;20189;-19
2022/03/01 01:06:01;;;;;;;2.37;2.17;;;14.70;59.10;;;;;;5097535;28;20182;-18
2022/03/01 01:08:27;;;;;;;2.20;2.00;;;14.70;59.20;;;;;;5097557;28;20175;-20
2022/03/01 01:10:53;;;;;;;2.23;2.03;;;14.70;59.20;;;;;;5097616;28;20208;-20
2022/03/01 01:13:19;;;;;;;2.27;2.03;;;14.70;59.20;;;;;;5097141;28;20191;-20
2022/03/01 01:15:45;;;;;;;2.67;2.20;;;14.70;59.30;;;;;;5097798;28;20179;-21
2022/03/01 01:18:11;;;;;;;2.60;2.10;;;14.70;59.20;;;;;;5097723;28;20167;-22
2022/03/01 01:20:37;;;;;;;2.47;2.07;;;14.70;59.20;;;;;;5096813;28;20188;-19
2022/03/01 01:23:04;;;;;;;2.30;2.10;;;14.70;59.20;;;;;;5097084;28;20182;-17
2022/03/01 01:25:30;;;;;;;2.47;2.27;;;14.70;59.20;;;;;;5096880;28;20244;-20
2022/03/01 01:27:57;;;;;;;2.53;2.10;;;14.70;59.40;;;;;;5097660;28;20195;-19
2022/03/01 01:30:25;;;;;;;2.00;1.80;;;14.70;59.20;;;;;;5096589;28;20257;-20
2022/03/01 01:32:51;;;;;;;2.20;2.00;;;14.70;59.20;;;;;;5097054;28;20311;-20
2022/03/01 01:35:20;;;;;;;2.40;2.20;;;14.60;59.10;;;;;;5096514;28;20181;-17
2022/03/01 01:37:47;;;;;;;2.47;2.00;;;14.60;59.20;;;;;;5096532;28;20174;-17
2022/03/01 01:40:16;;;;;;;2.27;2.07;;;14.60;59.20;;;;;;5096398;28;20178;-21
2022/03/01 01:42:42;;;;;;;2.60;2.03;;;14.60;59.10;;;;;;5097501;28;20204;-24
2022/03/01 01:45:09;;;;;;;2.07;1.87;;;14.60;59.10;;;;;;5097215;28;20579;-21
2022/03/01 01:47:36;;;;;;;2.63;2.00;;;14.60;59.10;;;;;;5094592;28;20337;-20
2022/03/01 01:50:02;;;;;;;2.37;1.90;;;14.60;59.10;;;;;;5096148;28;20212;-20
2022/03/01 01:52:28;;;;;;;2.43;2.10;;;14.60;59.10;;;;;;5095810;28;20175;-17
2022/03/01 01:54:54;;;;;;;3.73;2.10;;;14.60;59.10;;;;;;5096398;28;20185;-21
2022/03/01 01:57:23;;;;;;;2.10;1.90;;;14.50;59.10;;;;;;5097174;28;20182;-20
2022/03/01 01:59:51;;;;;;;2.27;1.93;;;14.50;59.10;;;;;;5094370;28;20605;-20
2022/03/01 02:02:19;;;;;;;2.20;2.00;;;14.50;59.20;;;;;;5096163;28;20576;-20
2022/03/01 02:04:45;;;;;;;2.27;2.07;;;14.50;59.20;;;;;;5094714;28;20214;-21
2022/03/01 02:07:12;;;;;;;2.10;1.90;;;14.50;59.10;;;;;;5091293;28;20246;-18
2022/03/01 02:09:38;;;;;;;2.70;2.17;;;14.50;59.20;;;;;;5077184;28;20293;-19
2022/03/01 02:12:04;;;;;;;2.60;2.20;;;14.50;59.20;;;;;;5078624;28;20208;-23
2022/03/01 02:14:31;;;;;;;2.37;2.17;;;14.50;59.20;;;;;;5099303;28;20239;-20
2022/03/01 02:17:05;;;;;;;2.40;2.10;;;14.50;59.20;;;;;;5099544;28;20765;-19
2022/03/01 02:19:31;;;;;;;2.43;2.00;;;14.40;59.10;;;;;;5098509;28;20182;-22
2022/03/01 02:21:57;;;;;;;2.40;2.20;;;14.40;59.10;;;;;;5099291;28;20296;-21
2022/03/01 02:24:30;;;;;;;2.33;2.07;;;14.40;59.10;;;;;;5099062;28;20254;-21
2022/03/01 02:27:05;;;;;;;2.17;1.70;;;14.40;59.10;;;;;;5098671;28;20171;-19
2022/03/01 02:29:32;;;;;;;2.30;2.10;;;14.40;59.10;;;;;;5077833;28;20245;-20
2022/03/01 02:32:08;;;;;;;2.63;2.00;;;14.40;59.10;;;;;;5078586;28;20156;-23
2022/03/01 02:34:35;;;;;;;2.20;2.00;;;14.40;59.10;;;;;;5076826;28;20210;-20
2022/03/01 02:37:02;;;;;;;2.90;2.10;;;14.40;59.10;;;;;;5078960;28;20172;-20
2022/03/01 02:39:28;;;;;;;2.27;2.00;;;14.40;59.10;;;;;;5077251;28;20179;-20
2022/03/01 02:41:54;;;;;;;2.13;1.93;;;14.40;59.20;;;;;;5077419;28;20189;-21
2022/03/01 02:44:20;;;;;;;2.37;2.17;;;14.30;59.10;;;;;;5078928;28;20168;-20
2022/03/01 02:46:46;;;;;;;2.00;1.80;;;14.30;59.10;;;;;;5078174;28;20168;-19
2022/03/01 02:49:12;;;;;;;2.47;1.80;;;14.30;59.10;;;;;;5078368;28;20209;-18
2022/03/01 02:51:38;;;;;;;2.30;2.10;;;14.30;59.10;;;;;;5077271;28;20281;-21
2022/03/01 02:54:05;;;;;;;2.07;1.87;;;14.30;59.10;;;;;;5077077;28;20171;-22
2022/03/01 02:56:31;;;;;;;2.57;2.37;;;14.30;59.10;;;;;;5078334;28;20224;-17
2022/03/01 02:58:59;;;;;;;2.70;2.00;;;14.30;59.10;;;;;;5078470;28;20171;-23
2022/03/01 03:01:26;;;;;;;2.07;1.87;;;14.30;59.10;;;;;;5078119;28;20164;-21
2022/03/01 03:03:52;;;;;;;2.73;2.23;;;14.30;59.10;;;;;;5078296;28;20171;-23
2022/03/01 03:06:18;;;;;;;2.50;2.23;;;14.30;59.10;;;;;;5077378;28;20177;-21
2022/03/01 03:08:44;;;;;;;2.20;2.00;;;14.30;59.10;;;;;;5078138;28;20423;-22
2022/03/01 03:11:16;;;;;;;2.33;2.13;;;14.20;59.00;;;;;;5077594;28;20195;-20
2022/03/01 03:13:42;;;;;;;2.43;2.23;;;14.20;59.00;;;;;;5077527;28;20174;-23
2022/03/01 03:16:10;;;;;;;2.60;2.40;;;14.20;58.90;;;;;;5077291;28;20660;-19
2022/03/01 03:18:36;;;;;;;2.40;2.10;;;14.20;58.90;;;;;;5078138;28;20163;-22
2022/03/01 03:21:04;;;;;;;2.57;2.30;;;14.20;58.90;;;;;;5077741;28;20247;-22
2022/03/01 03:23:30;;;;;;;2.47;1.90;;;14.20;58.90;;;;;;5077876;28;20492;-20
2022/03/01 03:25:56;;;;;;;2.23;2.00;;;14.20;58.90;;;;;;5077797;28;20218;-20
2022/03/01 03:28:22;;;;;;;2.40;2.20;;;14.20;58.80;;;;;;5077610;28;20218;-20
2022/03/01 03:30:50;;;;;;;3.27;2.40;;;14.20;58.70;;;;;;5077822;28;20202;-18
2022/03/01 03:33:15;;;;;;;2.27;2.07;;;14.20;59.10;;;;;;5078287;28;20174;-18
2022/03/01 03:35:41;;;;;;;2.20;2.00;;;14.20;58.60;;;;;;5076625;28;20172;-20
2022/03/01 03:38:08;;;;;;;2.80;2.00;;;14.20;58.70;;;;;;5078027;28;20155;-17
2022/03/01 03:40:36;;;;;;;2.87;2.30;;;14.20;58.70;;;;;;5077285;28;20229;-25
2022/03/01 03:43:01;;;;;;;2.50;2.30;;;14.10;58.70;;;;;;5077720;28;20174;-20
2022/03/01 03:45:27;;;;;;;3.30;2.10;;;14.20;58.70;;;;;;5077068;28;20164;-21
2022/03/01 03:47:53;;;;;;;2.67;2.13;;;14.10;58.70;;;;;;5077943;28;20160;-20
2022/03/01 03:50:19;;;;;;;2.77;2.10;;;14.10;58.70;;;;;;5077809;28;20199;-21
2022/03/01 03:52:44;;;;;;;2.20;2.00;;;14.10;58.70;;;;;;5077369;28;20162;-19
2022/03/01 03:55:11;;;;;;;2.50;1.90;;;14.20;58.70;;;;;;5078039;28;20171;-20
2022/03/01 03:57:37;;;;;;;2.53;2.00;;;14.20;58.70;;;;;;5077314;28;20488;-22
2022/03/01 04:00:08;;;;;;;3.60;2.10;;;14.10;58.70;;;;;;5076575;28;20177;-19
2022/03/01 04:02:34;;;;;;;2.40;2.10;;;14.10;58.60;;;;;;5077061;28;20182;-21
2022/03/01 04:05:00;;;;;;;2.97;2.10;;;14.10;58.70;;;;;;5076903;28;20563;-19
2022/03/01 04:07:26;;;;;;;2.10;1.90;;;14.10;58.70;;;;;;5077296;28;20201;-20
2022/03/01 04:09:53;;;;;;;3.47;2.30;;;14.10;58.70;;;;;;5077566;28;20519;-22
2022/03/01 04:12:18;;;;;;;2.30;2.03;;;14.10;58.70;;;;;;5076200;28;20201;-21
2022/03/01 04:14:44;;;;;;;2.20;2.00;;;14.10;58.70;;;;;;5076870;28;20473;-17
2022/03/01 04:17:10;;;;;;;2.63;2.40;;;14.10;58.70;;;;;;5076132;28;20220;-20
2022/03/01 04:19:36;;;;;;;3.13;2.30;;;14.10;58.80;;;;;;5077326;28;20168;-21
2022/03/01 04:22:03;;;;;;;2.10;1.90;;;14.10;58.80;;;;;;5076734;28;20270;-20
2022/03/01 04:24:30;;;;;;;2.17;1.90;;;14.10;58.80;;;;;;5076863;28;20175;-17
2022/03/01 04:26:55;;;;;;;2.03;1.83;;;14.00;58.80;;;;;;5077209;28;20185;-20
2022/03/01 04:29:21;;;;;;;2.37;2.17;;;14.00;58.80;;;;;;5076490;28;20576;-19
2022/03/01 04:31:47;;;;;;;2.30;2.10;;;14.10;58.80;;;;;;5076900;28;20170;-21
2022/03/01 04:34:12;;;;;;;2.30;2.03;;;14.00;58.70;;;;;;5080135;28;20563;-19
2022/03/01 04:36:38;;;;;;;2.60;1.97;;;14.10;58.70;;;;;;5080954;28;20335;-22
2022/03/01 04:39:04;;;;;;;2.93;2.23;;;14.00;58.70;;;;;;5088163;28;20175;-20
2022/03/01 04:41:30;;;;;;;2.97;2.20;;;14.00;58.70;;;;;;5101089;28;20167;-21
2022/03/01 04:43:58;;;;;;;2.33;2.03;;;14.00;58.70;;;;;;5100936;28;20154;-18
2022/03/01 04:46:23;;;;;;;2.30;2.10;;;14.00;58.60;;;;;;5100636;28;20525;-19
2022/03/01 04:48:49;;;;;;;2.50;2.20;;;14.00;58.60;;;;;;5100214;28;20630;-19
2022/03/01 04:51:21;;;;;;;2.50;2.10;;;14.00;58.60;;;;;;5099206;28;20194;-21
2022/03/01 04:53:51;;;;;;;2.87;2.20;;;14.00;58.50;;;;;;5100874;28;20555;-20
2022/03/01 04:56:17;;;;;;;2.30;2.00;;;14.00;58.50;;;;;;5100797;28;20158;-20
2022/03/01 04:58:44;;;;;;;2.40;2.10;;;14.00;58.90;;;;;;5099370;28;20170;-22
2022/03/01 05:01:09;;;;;;;2.37;2.13;;;14.00;58.50;;;;;;5099913;28;20181;-20
2022/03/01 05:03:36;;;;;;;2.03;1.83;;;14.00;58.50;;;;;;5100479;28;20185;-20
2022/03/01 05:06:01;;;;;;;2.57;2.23;;;14.00;58.50;;;;;;5101158;28;20543;-21
2022/03/01 05:08:30;;;;;;;2.70;2.20;;;14.00;58.60;;;;;;5099869;28;20171;-21
2022/03/01 05:11:00;;;;;;;2.57;1.97;;;14.00;58.60;;;;;;5099545;28;20233;-20
2022/03/01 05:13:27;;;;;;;2.47;2.03;;;14.00;58.60;;;;;;5099628;28;20227;-20
2022/03/01 05:15:53;;;;;;;2.60;2.20;;;14.00;58.60;;;;;;5098940;28;20171;-19
2022/03/01 05:18:18;;;;;;;2.40;2.17;;;14.00;58.60;;;;;;5100557;28;20210;-20
2022/03/01 05:20:45;;;;;;;2.10;1.90;;;14.00;58.50;;;;;;5100085;28;20262;-19
2022/03/01 05:23:10;;;;;;;3.00;2.40;;;14.00;58.50;;;;;;5099622;28;20280;-21
2022/03/01 05:25:36;;;;;;;2.27;2.07;;;14.00;58.50;;;;;;5098802;28;20524;-19
2022/03/01 05:28:02;;;;;;;2.23;2.03;;;13.90;58.50;;;;;;5081978;28;20183;-22
2022/03/01 05:30:28;;;;;;;2.63;2.40;;;13.90;58.40;;;;;;5099874;28;20187;-19
2022/03/01 05:32:57;;;;;;;3.03;2.20;;;13.90;58.30;;;;;;5099722;28;20162;-20
2022/03/01 05:35:28;;;;;;;2.47;2.20;;;13.90;58.40;;;;;;5098742;28;20167;-21
2022/03/01 05:37:55;;;;;;;2.23;2.00;;;13.90;58.40;;;;;;5099174;28;20163;-24
2022/03/01 05:40:24;;;;;;;3.03;2.27;;;13.90;58.40;;;;;;5098719;28;20594;-21
2022/03/01 05:42:49;;;;;;;2.57;2.33;;;13.90;58.50;;;;;;5099227;28;20155;-22
2022/03/01 05:45:15;;;;;;;2.77;2.20;;;13.90;58.40;;;;;;5098581;28;20181;-20
2022/03/01 05:47:43;;;;;;;3.67;2.00;;;13.90;58.30;;;;;;5098777;28;20277;-21
2022/03/01 05:50:10;;;;;;;2.57;2.30;;;13.90;58.30;;;;;;5098788;28;20223;-21
2022/03/01 05:52:39;;;;;;;2.43;2.17;;;13.90;58.40;;;;;;5098650;28;20162;-22
2022/03/01 05:55:06;;;;;;;2.47;2.27;;;13.90;58.30;;;;;;5098258;28;20173;-21
2022/03/01 05:57:32;;;;;;;3.27;2.80;;;13.90;58.20;;;;;;5098222;28;20299;-20
2022/03/01 05:59:58;;;;;;;2.63;2.20;;;13.80;58.20;;;;;;5098719;28;20184;-20
2022/03/01 06:02:24;;;;;;;2.40;2.17;;;13.80;58.30;;;;;;5098860;28;20163;-20
2022/03/01 06:04:51;;;;;;;2.60;2.30;;;13.80;58.30;;;;;;5098753;28;20159;-23
2022/03/01 06:07:16;;;;;;;2.70;2.43;;;13.80;58.30;;;;;;5098126;28;20454;-21
2022/03/01 06:09:43;;;;;;;3.27;2.43;;;13.90;58.90;;;;;;5097885;28;20709;-18
2022/03/01 06:12:09;;;;;;;3.17;2.43;;;13.90;59.10;;;;;;5098039;28;20190;-18
2022/03/01 06:14:35;;;;;;;2.40;2.20;;;13.90;59.30;;;;;;5097731;28;20165;-20
2022/03/01 06:17:01;;;;;;;3.20;2.27;;;13.90;59.30;;;;;;5098221;28;20155;-21
2022/03/01 06:19:30;;;;;;;3.60;2.20;;;14.00;59.50;;;;;;5097298;28;20178;-21
2022/03/01 06:21:56;;;;;;;2.50;2.20;;;14.00;59.60;;;;;;5098093;28;20217;-18
2022/03/01 06:24:23;;;;;;;3.70;2.60;;;14.00;59.60;;;;;;5098536;28;20232;-22
2022/03/01 06:26:48;;;;;;;2.80;2.40;;;14.00;59.60;;;;;;5097575;28;20442;-20
2022/03/01 06:29:14;;;;;;;3.77;2.50;;;14.00;59.60;;;;;;5097605;28;20620;-20
2022/03/01 06:31:40;;;;;;;3.23;2.60;;;14.10;59.60;;;;;;5096419;28;20194;-22
2022/03/01 06:34:06;;;;;;;4.07;2.40;;;14.10;59.50;;;;;;5098454;28;20476;-17
2022/03/01 06:36:31;;;;;;;3.80;2.37;;;14.10;59.40;;;;;;5096544;28;20263;-21
2022/03/01 06:38:57;;;;;;;3.43;2.70;;;14.10;59.30;;;;;;5096910;28;20202;-23
2022/03/01 06:41:23;;;;;;;4.23;2.70;;;14.10;59.20;;;;;;5097301;28;20458;-20
2022/03/01 06:43:48;;;;;;;3.83;2.70;;;14.10;59.10;;;;;;5096575;28;20480;-21
2022/03/01 06:46:14;;;;;;;4.27;2.83;;;14.10;59.00;;;;;;5097375;28;20241;-22
2022/03/01 06:48:41;;;;;;;3.20;2.60;;;14.10;58.90;;;;;;5096375;28;20176;-20
2022/03/01 06:51:09;;;;;;;3.30;2.73;;;14.20;58.70;;;;;;5095705;28;20262;-23
2022/03/01 06:53:36;;;;;;;3.67;3.10;;;14.20;58.60;;;;;;5096149;28;20566;-21
2022/03/01 06:56:02;;;;;;;4.00;2.77;;;14.20;58.50;;;;;;5096067;28;20172;-19
2022/03/01 06:58:29;;;;;;;6.40;3.00;;;14.20;58.40;;;;;;5097087;28;20169;-18
2022/03/01 07:00:56;;;;;;;5.77;3.40;;;14.30;58.20;;;;;;5097436;28;20149;-20
2022/03/01 07:03:22;;;;;;;10.57;3.10;;;14.40;58.00;;;;;;5097327;28;20242;-19
2022/03/01 07:05:50;;;;;;;7.27;3.67;;;14.50;57.60;;;;;;5096371;28;20186;-21
2022/03/01 07:08:20;;;;;;;6.50;3.60;;;14.60;57.20;;;;;;5095776;28;20175;-21
2022/03/01 07:10:47;;;;;;;9.70;3.77;;;14.70;56.80;;;;;;5096778;28;20205;-20
2022/03/01 07:13:12;;;;;;;7.50;3.87;;;14.80;56.40;;;;;;5096862;28;20159;-19
2022/03/01 07:15:38;;;;;;;5.10;3.80;;;14.80;56.10;;;;;;5096219;28;20441;-21
2022/03/01 07:18:04;;;;;;;5.93;3.30;;;14.80;56.00;;;;;;5096188;28;20166;-21
2022/03/01 07:20:30;;;;;;;6.00;3.90;;;14.80;56.00;;;;;;5096584;28;20221;-20
2022/03/01 07:22:56;;;;;;;6.60;3.90;;;14.70;56.00;;;;;;5096639;28;20262;-19
2022/03/01 07:25:28;;;;;;;6.37;4.10;;;14.70;56.00;;;;;;5096495;28;20265;-21
2022/03/01 07:27:55;;;;;;;5.13;4.37;;;14.70;55.90;;;;;;5096397;28;20266;-19
2022/03/01 07:30:24;;;;;;;5.10;3.70;;;14.70;55.90;;;;;;5095213;28;20246;-22
2022/03/01 07:32:52;;;;;;;7.17;3.60;;;14.70;55.90;;;;;;5093961;28;20159;-21
2022/03/01 07:35:22;;;;;;;6.23;3.80;;;14.70;55.90;;;;;;5095414;28;20266;-18
2022/03/01 07:37:47;;;;;;;5.53;4.00;;;14.70;55.80;;;;;;5096384;28;20148;-21
2022/03/01 07:40:15;;;;;;;7.27;4.00;;;14.70;55.70;;;;;;5096071;28;20180;-21
2022/03/01 07:42:41;;;;;;;5.27;3.83;;;14.70;55.60;;;;;;5096377;28;20199;-22
2022/03/01 07:45:08;;;;;;;5.60;3.80;;;14.80;55.60;;;;;;5095073;28;20167;-21
2022/03/01 07:47:35;;;;;;;5.60;3.83;;;14.80;55.40;;;;;;5095401;28;20172;-20
2022/03/01 07:50:00;;;;;;;7.33;4.20;;;14.80;55.30;;;;;;5094844;28;20222;-20
2022/03/01 07:52:26;;;;;;;6.17;4.10;;;14.90;55.10;;;;;;5094035;28;20484;-19
2022/03/01 07:54:53;;;;;;;7.43;4.20;;;14.90;54.90;;;;;;5096099;28;20231;-20
2022/03/01 07:57:19;;;;;;;4.50;3.70;;;14.80;54.60;;;;;;5095842;28;20141;-20
2022/03/01 07:59:45;;;;;;;8.40;4.07;;;14.90;54.30;;;;;;5095981;28;20538;-21
2022/03/01 08:02:11;;;;;;;5.63;3.93;;;15.00;54.10;;;;;;5095332;28;20531;-19
2022/03/01 08:04:37;;;;;;;8.80;4.40;;;15.20;53.60;;;;;;5095830;28;20246;-23
2022/03/01 08:07:03;;;;;;;5.90;4.47;;;15.30;53.10;;;;;;5096110;28;20311;-24
2022/03/01 08:09:29;;;;;;;5.93;4.33;;;15.40;52.70;;;;;;5098901;28;20580;-22
2022/03/01 08:11:55;;;;;;;5.30;4.13;;;15.50;52.40;;;;;;5098502;28;20184;-20
2022/03/01 08:14:21;;;;;;;5.10;4.00;;;15.70;52.00;;;;;;5100136;28;20183;-22
2022/03/01 08:16:46;;;;;;;5.00;4.40;;;15.80;51.70;;;;;;5099615;28;20200;-20
2022/03/01 08:19:12;;;;;;;5.40;4.30;;;16.00;51.30;;;;;;5098786;28;20564;-19
2022/03/01 08:21:38;;;;;;;7.33;4.80;;;16.10;50.90;;;;;;5098927;28;20175;-22
2022/03/01 08:24:04;;;;;;;7.50;5.00;;;16.20;50.50;;;;;;5098701;28;20160;-21
2022/03/01 08:26:30;;;;;;;6.93;5.23;;;16.30;50.30;;;;;;5098226;28;20156;-19
2022/03/01 08:28:55;;;;;;;6.07;4.80;;;16.40;50.10;;;;;;5097513;28;20261;-18
2022/03/01 08:31:21;;;;;;;5.37;4.67;;;16.50;49.90;;;;;;5097848;28;20454;-20
2022/03/01 08:33:46;;;;;;;6.00;4.60;;;16.60;49.70;;;;;;5097914;28;20177;-20
2022/03/01 08:36:15;;;;;;;6.37;4.70;;;16.60;49.40;;;;;;5098192;28;20595;-22
2022/03/01 08:38:41;;;;;;;6.43;4.70;;;16.70;49.20;;;;;;5098782;28;20443;-24
2022/03/01 08:41:07;;;;;;;5.23;4.50;;;16.60;49.10;;;;;;5097878;28;20686;-20
2022/03/01 08:43:32;;;;;;;4.97;4.47;;;16.50;49.00;;;;;;5097926;28;20588;-21
2022/03/01 08:46:02;;;;;;;4.87;4.30;;;16.40;49.00;;;;;;5097216;28;20171;-22
2022/03/01 08:48:27;;;;;;;6.13;4.70;;;16.30;48.90;;;;;;5098012;28;20163;-22
2022/03/01 08:50:53;;;;;;;7.03;5.10;;;16.30;48.70;;;;;;5097850;28;20199;-20
2022/03/01 08:53:19;;;;;;;5.23;4.70;;;16.40;48.60;;;;;;5097248;28;20167;-20
2022/03/01 08:55:46;;;;;;;5.37;4.77;;;16.50;48.40;;;;;;5097247;28;20177;-21
2022/03/01 08:58:12;;;;;;;6.07;5.10;;;16.50;48.20;;;;;;5097290;28;20181;-20
2022/03/01 09:00:39;;;;;;;5.63;4.60;;;16.40;48.00;;;;;;5096369;28;20175;-21
2022/03/01 09:03:05;;;;;;;6.57;4.80;;;16.20;48.10;;;;;;5097528;28;20186;-18
2022/03/01 09:05:32;;;;;;;7.17;5.03;;;16.10;48.30;;;;;;5097492;28;20174;-19
2022/03/01 09:07:58;;;;;;;5.93;4.83;;;16.00;48.30;;;;;;5097256;28;20464;-26
2022/03/01 09:10:24;;;;;;;6.80;5.03;;;16.10;48.30;;;;;;5096380;28;20263;-21
2022/03/01 09:12:52;;;;;;;5.47;4.60;;;16.30;48.20;;;;;;5096558;28;20202;-24
2022/03/01 09:15:21;;;;;;;5.17;4.53;;;16.50;47.90;;;;;;5096886;28;20175;-21
2022/03/01 09:17:48;;;;;;;5.07;4.37;;;16.70;47.60;;;;;;5096190;28;20175;-23
2022/03/01 09:20:14;;;;;;;5.77;4.67;;;16.70;47.40;;;;;;5097489;28;20166;-20
2022/03/01 09:22:41;;;;;;;5.73;4.70;;;16.50;47.40;;;;;;5044803;28;1493204;-18
2022/03/01 09:25:08;;;;;;;5.53;4.53;;;16.30;47.50;;;;;;5097140;28;20203;-20
2022/03/01 09:27:34;;;;;;;5.70;4.73;;;16.20;47.80;;;;;;5096567;28;20251;-20
2022/03/01 09:30:00;;;;;;;5.53;4.70;;;16.10;47.80;;;;;;5098284;28;20243;-20
2022/03/01 09:32:26;;;;;;;6.47;4.80;;;16.10;47.80;;;;;;5097463;28;20171;-20
2022/03/01 09:34:55;;;;;;;5.90;4.80;;;16.00;47.80;;;;;;5097945;28;20167;-20
2022/03/01 09:37:22;;;;;;;6.00;4.50;;;16.00;47.90;;;;;;5097081;28;20175;-19
2022/03/01 09:39:47;;;;;;;5.20;4.27;;;15.90;48.10;;;;;;5098410;28;20163;-21
2022/03/01 09:42:13;;;;;;;7.87;4.90;;;15.80;48.10;;;;;;5098282;28;20269;-21
2022/03/01 09:44:46;;;;;;;8.20;4.90;;;15.90;46.90;;;;;;5098138;28;20656;-20
2022/03/01 09:47:12;;;;;;;6.50;4.90;;;16.10;47.00;;;;;;5097379;28;20254;-22
2022/03/01 09:49:38;;;;;;;6.47;4.60;;;16.30;47.10;;;;;;5097029;28;20289;-18
2022/03/01 09:52:04;;;;;;;7.20;4.73;;;16.50;46.90;;;;;;5097921;28;20262;-20
2022/03/01 09:54:30;;;;;;;5.53;4.50;;;16.40;47.20;;;;;;5096783;28;20286;-21
2022/03/01 09:56:56;;;;;;;6.00;4.40;;;16.20;47.50;;;;;;5096656;28;20184;-22
2022/03/01 09:59:21;;;;;;;5.80;4.50;;;16.10;47.80;;;;;;5096431;28;20174;-20
2022/03/01 10:01:49;;;;;;;7.30;4.67;;;16.00;47.90;;;;;;5097151;28;20170;-21
2022/03/01 10:04:17;;;;;;;6.60;4.90;;;15.90;48.00;;;;;;5096062;28;20170;-20
2022/03/01 10:06:45;;;;;;;6.57;4.50;;;15.90;48.10;;;;;;5097042;28;20182;-19
2022/03/01 10:09:24;;;;;;;6.03;4.20;;;15.80;48.00;;;;;;5096891;28;20522;-20
2022/03/01 10:11:52;;;;;;;5.10;4.27;;;15.80;48.00;;;;;;5096437;28;20205;-21
2022/03/01 10:14:32;;;;;;;5.77;4.60;;;15.80;48.00;;;;;;5097295;28;20151;-21
2022/03/01 10:16:58;;;;;;;7.73;4.17;;;15.80;48.10;;;;;;5097259;28;20616;-21
2022/03/01 10:19:25;;;;;;;7.60;4.77;;;15.80;48.20;;;;;;5095830;28;20265;-20
2022/03/01 10:21:59;;;;;;;6.63;4.93;;;15.80;48.20;;;;;;5096085;28;20220;-20
2022/03/01 10:24:26;;;;;;;6.70;4.30;;;15.80;48.30;;;;;;5095488;28;20488;-24
2022/03/01 10:27:05;;;;;;;7.57;4.73;;;15.90;48.40;;;;;;5095645;28;20171;-22
2022/03/01 10:29:32;;;;;;;5.00;4.50;;;15.90;48.40;;;;;;5095537;28;20206;-21
2022/03/01 10:32:09;;;;;;;7.90;4.70;;;15.90;48.40;;;;;;5096422;28;20170;-20
2022/03/01 10:34:36;;;;;;;10.30;4.47;;;16.00;48.40;;;;;;5095971;28;20159;-18
2022/03/01 10:37:02;;;;;;;7.37;4.70;;;16.00;48.50;;;;;;5096715;28;20159;-22
2022/03/01 10:39:30;;;;;;;7.57;4.67;;;16.00;48.70;;;;;;5095023;28;20200;-21
2022/03/01 10:41:56;;;;;;;7.97;4.53;;;16.00;48.90;;;;;;5096617;28;20525;-22
2022/03/01 10:44:28;;;;;;;7.67;4.97;;;16.10;49.40;;;;;;5095554;28;20468;-20
2022/03/01 10:46:58;;;;;;;8.57;4.70;;;16.00;50.20;;;;;;5095735;28;20171;-23
2022/03/01 10:49:31;;;;;;;6.53;4.23;;;16.00;50.50;;;;;;5096390;28;20503;-21
2022/03/01 10:52:02;;;;;;;8.77;4.70;;;16.10;50.90;;;;;;5095040;28;20177;-19
2022/03/01 10:54:33;;;;;;;6.87;4.37;;;16.10;50.90;;;;;;5094626;28;20247;-19
2022/03/01 10:57:01;;;;;;;8.23;4.50;;;16.10;50.70;;;;;;5095484;28;20179;-22
2022/03/01 10:59:32;;;;;;;9.33;4.10;;;16.00;50.60;;;;;;5097063;28;20222;-22
2022/03/01 11:01:58;;;;;;;6.37;4.47;;;16.10;50.50;;;;;;5095706;28;20215;-23
2022/03/01 11:04:25;;;;;;;7.53;4.97;;;16.10;50.30;;;;;;5095816;28;20182;-20
2022/03/01 11:06:58;;;;;;;6.90;4.03;;;16.00;50.10;;;;;;5095422;28;20168;-20
2022/03/01 11:09:26;;;;;;;12.77;4.93;;;16.00;50.10;;;;;;5095718;28;20179;-20
2022/03/01 11:11:54;;;;;;;6.97;4.30;;;16.00;50.00;;;;;;5095628;28;20178;-21
2022/03/01 11:14:24;;;;;;;8.00;4.70;;;16.00;50.00;;;;;;5095553;28;20208;-21
2022/03/01 11:17:15;;;;;;;8.00;4.07;;;16.00;50.00;;;;;;5096721;28;20169;-24
2022/03/01 11:19:58;;;;;;;8.70;4.63;;;16.00;49.90;;;;;;5094369;28;20167;-20
2022/03/01 11:22:45;;;;;;;7.23;4.17;;;16.00;49.80;;;;;;5093218;28;20224;-24
2022/03/01 11:25:27;;;;;;;6.27;4.33;;;16.00;49.80;;;;;;5095955;28;20170;-20
2022/03/01 11:28:02;;;;;;;6.27;3.97;;;16.00;49.70;;;;;;5095156;28;20179;-20
2022/03/01 11:30:32;;;;;;;6.37;4.63;;;16.00;49.60;;;;;;5095315;28;20209;-21
2022/03/01 11:32:58;;;;;;;6.03;4.37;;;16.00;49.50;;;;;;5094162;28;20281;-21
2022/03/01 11:35:28;;;;;;;5.60;3.93;;;16.00;49.30;;;;;;5095976;28;20150;-19
2022/03/01 11:38:29;;;;;;;8.00;4.73;;;16.00;49.20;;;;;;5095413;28;20440;-21
2022/03/01 11:41:08;;;;;;;6.50;4.80;;;16.00;49.20;;;;;;5072041;28;20180;-22
2022/03/01 11:43:37;;;;;;;5.23;4.00;;;16.00;49.20;;;;;;5095150;28;20795;-23
2022/03/01 11:46:17;;;;;;;5.73;4.00;;;16.00;49.30;;;;;;5094065;28;20594;-22
2022/03/01 11:49:10;;;;;;;5.33;4.20;;;16.00;49.30;;;;;;5094645;28;20178;-20
2022/03/01 11:51:46;;;;;;;5.80;4.40;;;16.00;49.20;;;;;;5094572;28;20217;-22
2022/03/01 11:54:22;;;;;;;5.93;4.13;;;16.00;49.20;;;;;;5095170;28;20178;-22
2022/03/01 11:56:51;;;;;;;6.03;3.93;;;16.00;49.10;;;;;;5089716;28;20278;-24
2022/03/01 11:59:17;;;;;;;5.47;4.23;;;16.00;49.10;;;;;;5095267;28;20152;-22
2022/03/01 12:01:43;;;;;;;6.80;4.50;;;16.00;48.90;;;;;;5094445;28;20215;-19
2022/03/01 12:04:20;;;;;;;5.87;4.27;;;16.00;48.90;;;;;;5094576;28;20164;-21
2022/03/01 12:06:47;;;;;;;5.83;4.53;;;16.10;48.80;;;;;;5094525;28;20219;-23
2022/03/01 12:09:15;;;;;;;5.67;4.67;;;16.00;48.70;;;;;;5094665;28;20166;-21
2022/03/01 12:11:44;;;;;;;7.60;4.07;;;16.00;48.60;;;;;;5095131;28;20445;-24
2022/03/01 12:14:11;;;;;;;6.37;4.07;;;16.10;48.70;;;;;;5093798;28;20178;-24
2022/03/01 12:16:38;;;;;;;5.23;4.37;;;16.10;48.80;;;;;;5093591;28;20567;-20
2022/03/01 12:19:28;;;;;;;5.20;3.83;;;16.10;48.80;;;;;;5093384;28;20167;-22
2022/03/01 12:21:57;;;;;;;5.83;4.13;;;16.10;48.80;;;;;;5093750;28;20197;-21
2022/03/01 12:24:25;;;;;;;5.73;4.07;;;16.10;48.80;;;;;;5094980;28;20185;-23
2022/03/01 12:26:59;;;;;;;6.10;4.00;;;16.10;48.90;;;;;;5094894;28;20549;-22
2022/03/01 12:29:27;;;;;;;6.33;4.27;;;16.10;49.00;;;;;;5093956;28;20563;-22
2022/03/01 12:31:59;;;;;;;6.17;4.20;;;16.10;49.00;;;;;;5093649;28;20195;-21
2022/03/01 12:34:30;;;;;;;5.67;4.23;;;16.10;49.00;;;;;;5094297;28;20233;-22
2022/03/01 12:36:58;;;;;;;5.57;4.30;;;16.10;49.00;;;;;;5094932;28;20670;-21
2022/03/01 12:39:27;;;;;;;6.40;4.33;;;16.10;49.00;;;;;;5093991;28;20192;-24
2022/03/01 12:41:53;;;;;;;6.67;4.17;;;16.10;49.00;;;;;;5094425;28;20260;-22
2022/03/01 12:44:21;;;;;;;5.80;4.43;;;16.10;48.90;;;;;;5094228;28;20173;-22
2022/03/01 12:46:47;;;;;;;5.80;3.90;;;16.10;48.90;;;;;;5094644;28;20228;-20